createdAt,value
2023-04-29T00:01:19.890Z,100017.25
2023-04-29T00:03:48.294Z,100012.94
2023-04-29T00:06:17.020Z,100015.72
2023-04-29T00:08:46.104Z,100009.91
2023-04-29T00:11:14.468Z,100016.88
2023-04-29T00:13:42.465Z,100012.44
2023-04-29T00:16:10.875Z,100017.84
2023-04-29T00:18:38.924Z,100013.84
2023-04-29T00:21:07.005Z,100015.66
2023-04-29T00:23:35.010Z,100017.47
2023-04-29T00:26:04.103Z,100016.88
2023-04-29T00:28:31.846Z,100024.25
2023-04-29T00:31:00.871Z,100024.44
2023-04-29T00:33:28.664Z,100018.34
2023-04-29T00:35:56.713Z,100021.97
2023-04-29T00:38:24.745Z,100019.44
2023-04-29T00:40:53.326Z,100017.88
2023-04-29T00:43:23.406Z,100013.50
2023-04-29T00:45:52.328Z,100013.50
2023-04-29T00:48:21.165Z,100025.41
2023-04-29T00:50:48.850Z,100023.09
2023-04-29T00:53:16.609Z,100028.56
2023-04-29T00:55:46.296Z,100027.50
2023-04-29T00:58:14.430Z,100023.03
2023-04-29T01:00:44.094Z,100017.22
2023-04-29T01:03:12.129Z,100021.44
2023-04-29T01:05:40.008Z,100028.31
2023-04-29T01:08:27.008Z,100030.34
2023-04-29T01:10:58.025Z,100022.81
2023-04-29T01:13:32.127Z,100031.06
2023-04-29T01:16:09.779Z,100026.78
2023-04-29T01:18:43.408Z,100027.78
2023-04-29T01:21:12.142Z,100029.59
2023-04-29T01:23:41.242Z,100029.78
2023-04-29T01:26:09.457Z,100029.38
2023-04-29T01:29:03.891Z,100033.22
2023-04-29T01:31:34.912Z,100032.63
2023-04-29T01:34:10.456Z,100038.16
2023-04-29T01:36:49.317Z,100039.53
2023-04-29T01:39:28.648Z,100035.94
2023-04-29T01:42:15.941Z,100035.00
2023-04-29T01:44:44.736Z,100033.34
2023-04-29T01:47:15.968Z,100039.00
2023-04-29T01:49:48.480Z,100036.84
2023-04-29T01:52:16.208Z,100044.44
2023-04-29T01:54:53.669Z,100041.22
2023-04-29T01:57:21.832Z,100045.13
2023-04-29T02:00:02.163Z,100049.81
2023-04-29T02:02:43.701Z,100054.91
2023-04-29T02:05:32.218Z,100054.38
2023-04-29T02:08:00.059Z,100054.69
2023-04-29T02:10:29.742Z,100062.56
2023-04-29T02:13:11.983Z,100062.56
2023-04-29T02:15:39.776Z,100065.81
2023-04-29T02:18:08.336Z,100064.34
2023-04-29T02:20:36.262Z,100065.84
2023-04-29T02:23:06.316Z,100067.69
2023-04-29T02:25:35.658Z,100068.19
2023-04-29T02:28:03.581Z,100074.28
2023-04-29T02:30:31.429Z,100074.34
2023-04-29T02:32:59.129Z,100071.25
2023-04-29T02:35:27.204Z,100077.81
2023-04-29T02:37:55.597Z,100072.53
2023-04-29T02:40:25.559Z,100074.56
2023-04-29T02:42:54.543Z,100084.28
2023-04-29T02:45:22.605Z,100075.56
2023-04-29T02:47:50.382Z,100078.06
2023-04-29T02:50:18.466Z,100074.31
2023-04-29T02:52:46.605Z,100075.56
2023-04-29T02:55:14.446Z,100070.88
2023-04-29T02:57:43.201Z,100086.59
2023-04-29T03:00:13.293Z,100077.56
2023-04-29T03:02:41.747Z,100073.75
2023-04-29T03:05:10.781Z,100081.88
2023-04-29T03:07:38.679Z,100087.91
2023-04-29T03:10:07.971Z,100075.81
2023-04-29T03:12:39.404Z,100077.22
2023-04-29T03:15:10.732Z,100079.91
2023-04-29T03:17:40.412Z,100083.25
2023-04-29T03:20:10.962Z,100079.75
2023-04-29T03:22:38.682Z,100085.59
2023-04-29T03:25:07.874Z,100084.16
2023-04-29T03:27:35.813Z,100088.81
2023-04-29T03:30:03.812Z,100087.81
2023-04-29T03:32:32.324Z,100089.47
2023-04-29T03:35:03.360Z,100087.59
2023-04-29T03:37:38.948Z,100093.28
2023-04-29T03:40:32.547Z,100088.63
2023-04-29T03:43:00.853Z,100090.97
2023-04-29T03:45:29.139Z,100097.38
2023-04-29T03:47:57.266Z,100102.94
2023-04-29T03:50:26.827Z,100099.94
2023-04-29T03:52:54.989Z,100100.91
2023-04-29T03:55:22.798Z,100105.25
2023-04-29T03:57:50.553Z,100112.31
2023-04-29T04:00:19.657Z,100115.06
2023-04-29T04:02:53.552Z,100115.78
2023-04-29T04:05:25.004Z,100122.75
2023-04-29T04:07:58.393Z,100127.03
2023-04-29T04:10:35.946Z,100124.44
2023-04-29T04:13:08.832Z,100134.09
2023-04-29T04:15:37.823Z,100133.63
2023-04-29T04:18:06.128Z,100126.88
2023-04-29T04:20:34.042Z,100130.41
2023-04-29T04:23:04.547Z,100137.47
2023-04-29T04:25:33.210Z,100136.97
2023-04-29T04:28:14.494Z,100142.59
2023-04-29T04:30:57.010Z,100139.97
2023-04-29T04:33:24.878Z,100145.41
2023-04-29T04:35:53.232Z,100151.47
2023-04-29T04:38:25.218Z,100159.34
2023-04-29T04:40:53.112Z,100169.00
2023-04-29T04:43:34.298Z,100172.66
2023-04-29T04:46:11.192Z,100163.16
2023-04-29T04:48:42.921Z,100172.78
2023-04-29T04:51:14.426Z,100173.53
2023-04-29T04:53:45.576Z,100177.59
2023-04-29T04:56:20.502Z,100181.91
2023-04-29T04:58:48.267Z,100181.78
2023-04-29T05:01:16.678Z,100186.19
2023-04-29T05:03:45.296Z,100192.25
2023-04-29T05:06:13.872Z,100192.25
2023-04-29T05:08:45.151Z,100193.16
2023-04-29T05:11:19.186Z,100207.09
2023-04-29T05:13:58.293Z,100207.88
2023-04-29T05:16:29.728Z,100204.38
2023-04-29T05:18:57.523Z,100210.91
2023-04-29T05:21:31.344Z,100215.25
2023-04-29T05:24:01.619Z,100213.50
2023-04-29T05:26:29.598Z,100216.09
2023-04-29T05:29:01.308Z,100216.63
2023-04-29T05:31:33.482Z,100221.16
2023-04-29T05:34:04.216Z,100219.41
2023-04-29T05:36:32.935Z,100222.53
2023-04-29T05:39:01.921Z,100222.84
2023-04-29T05:41:30.792Z,100234.78
2023-04-29T05:44:21.887Z,100236.88
2023-04-29T05:46:51.645Z,100244.84
2023-04-29T05:49:20.471Z,100251.75
2023-04-29T05:51:48.808Z,100249.06
2023-04-29T05:54:18.309Z,100253.38
2023-04-29T05:56:47.690Z,100253.81
2023-04-29T05:59:15.347Z,100261.34
2023-04-29T06:01:50.869Z,100263.84
2023-04-29T06:04:18.988Z,100264.72
2023-04-29T06:07:10.211Z,100268.31
2023-04-29T06:09:58.442Z,100263.09
2023-04-29T06:12:27.388Z,100266.78
2023-04-29T06:14:55.103Z,100271.53
2023-04-29T06:17:22.868Z,100274.06
2023-04-29T06:19:52.095Z,100275.06
2023-04-29T06:22:20.170Z,100281.25
2023-04-29T06:24:52.779Z,100297.00
2023-04-29T06:27:37.021Z,100296.31
2023-04-29T06:30:07.601Z,100290.69
2023-04-29T06:32:36.050Z,100298.00
2023-04-29T06:35:03.989Z,100295.00
2023-04-29T06:38:08.252Z,100308.50
2023-04-29T06:40:54.493Z,100306.50
2023-04-29T06:43:43.320Z,100315.63
2023-04-29T06:46:30.173Z,100311.34
2023-04-29T06:49:19.258Z,100308.09
2023-04-29T06:51:47.377Z,100314.97
2023-04-29T06:54:15.294Z,100320.75
2023-04-29T06:56:42.967Z,100318.44
2023-04-29T06:59:12.639Z,100331.97
2023-04-29T07:01:43.439Z,100338.34
2023-04-29T07:04:12.846Z,100339.59
2023-04-29T07:06:40.840Z,100336.34
2023-04-29T07:09:09.158Z,100336.59
2023-04-29T07:11:38.019Z,100342.78
2023-04-29T07:14:06.335Z,100344.66
2023-04-29T07:16:35.555Z,100342.94
2023-04-29T07:19:03.724Z,100345.38
2023-04-29T07:21:32.041Z,100355.22
2023-04-29T07:24:02.236Z,100359.50
2023-04-29T07:26:30.763Z,100360.38
2023-04-29T07:28:58.648Z,100372.72
2023-04-29T07:31:26.511Z,100371.81
2023-04-29T07:33:57.432Z,100370.13
2023-04-29T07:36:25.724Z,100379.84
2023-04-29T07:38:53.481Z,100383.22
2023-04-29T07:41:21.537Z,100377.47
2023-04-29T07:43:50.153Z,100388.53
2023-04-29T07:46:18.235Z,100392.22
2023-04-29T07:48:46.176Z,100395.59
2023-04-29T07:51:16.093Z,100384.88
2023-04-29T07:53:43.829Z,100390.66
2023-04-29T07:56:11.610Z,100386.66
2023-04-29T07:58:41.652Z,100381.59
2023-04-29T08:01:10.211Z,100389.03
2023-04-29T08:03:41.140Z,100404.41
2023-04-29T08:06:10.532Z,100399.13
2023-04-29T08:08:39.652Z,100407.34
2023-04-29T08:11:07.680Z,100412.72
2023-04-29T08:13:38.544Z,100413.19
2023-04-29T08:16:06.745Z,100416.31
2023-04-29T08:18:36.703Z,100421.78
2023-04-29T08:21:04.939Z,100423.44
2023-04-29T08:23:33.139Z,100429.47
2023-04-29T08:26:03.815Z,100429.13
2023-04-29T08:28:31.936Z,100431.44
2023-04-29T08:30:59.822Z,100433.88
2023-04-29T08:33:27.557Z,100437.19
2023-04-29T08:35:59.496Z,100440.66
2023-04-29T08:38:27.962Z,100441.22
2023-04-29T08:40:56.655Z,100441.81
2023-04-29T08:43:26.352Z,100439.53
2023-04-29T08:45:54.540Z,100441.69
2023-04-29T08:48:23.005Z,100441.91
2023-04-29T08:50:50.936Z,100445.81
2023-04-29T08:53:18.858Z,100449.09
2023-04-29T08:55:48.049Z,100449.44
2023-04-29T08:58:17.106Z,100450.19
2023-04-29T09:00:46.355Z,100455.47
2023-04-29T09:03:21.620Z,100447.63
2023-04-29T09:05:50.884Z,100457.00
2023-04-29T09:08:19.258Z,100455.25
2023-04-29T09:10:47.624Z,100452.25
2023-04-29T09:13:25.805Z,100446.81
2023-04-29T09:15:55.553Z,100450.34
2023-04-29T09:18:46.647Z,100456.66
2023-04-29T09:21:15.964Z,100460.34
2023-04-29T09:23:44.022Z,100459.16
2023-04-29T09:26:11.951Z,100466.53
2023-04-29T09:28:43.600Z,100466.72
2023-04-29T09:31:13.475Z,100466.25
2023-04-29T09:33:54.881Z,100473.63
2023-04-29T09:36:44.981Z,100477.94
2023-04-29T09:39:15.032Z,100484.38
2023-04-29T09:41:57.740Z,100479.72
2023-04-29T09:44:27.216Z,100478.69
2023-04-29T09:47:02.529Z,100470.22
2023-04-29T09:49:35.606Z,100479.44
2023-04-29T09:52:04.955Z,100479.88
2023-04-29T09:54:34.027Z,100483.56
2023-04-29T09:57:05.913Z,100489.81
2023-04-29T09:59:36.257Z,100486.69
2023-04-29T10:02:09.325Z,100487.16
2023-04-29T10:04:41.534Z,100483.56
2023-04-29T10:07:10.514Z,100481.53
2023-04-29T10:09:40.922Z,100484.34
2023-04-29T10:12:09.062Z,100484.28
2023-04-29T10:14:44.537Z,100490.28
2023-04-29T10:17:19.438Z,100487.63
2023-04-29T10:19:54.428Z,100491.22
2023-04-29T10:22:32.652Z,100497.78
2023-04-29T10:25:02.959Z,100493.38
2023-04-29T10:27:34.962Z,100497.81
2023-04-29T10:30:05.034Z,100495.09
2023-04-29T10:32:49.746Z,100492.47
2023-04-29T10:35:20.373Z,100496.47
2023-04-29T10:37:50.088Z,100494.84
2023-04-29T10:40:21.265Z,100497.41
2023-04-29T10:42:50.429Z,100496.34
2023-04-29T10:45:22.668Z,100492.53
2023-04-29T10:48:13.031Z,100501.56
2023-04-29T10:51:07.918Z,100505.06
2023-04-29T10:53:35.689Z,100505.03
2023-04-29T10:56:10.808Z,100502.69
2023-04-29T10:58:46.809Z,100507.53
2023-04-29T11:01:16.584Z,100504.03
2023-04-29T11:03:55.101Z,100499.72
2023-04-29T11:06:24.974Z,100498.38
2023-04-29T11:09:03.686Z,100499.59
2023-04-29T11:11:59.025Z,100498.75
2023-04-29T11:14:28.651Z,100489.59
2023-04-29T11:16:58.880Z,100489.34
2023-04-29T11:19:33.951Z,100490.44
2023-04-29T11:22:17.510Z,100483.59
2023-04-29T11:24:56.948Z,100483.94
2023-04-29T11:27:27.140Z,100484.56
2023-04-29T11:29:58.697Z,100480.47
2023-04-29T11:32:28.400Z,100479.31
2023-04-29T11:35:08.928Z,100484.47
2023-04-29T11:37:37.057Z,100475.81
2023-04-29T11:40:06.661Z,100482.19
2023-04-29T11:42:36.257Z,100488.22
2023-04-29T11:45:04.302Z,100486.13
2023-04-29T11:47:32.592Z,100481.94
2023-04-29T11:50:06.215Z,100480.53
2023-04-29T11:52:34.570Z,100486.91
2023-04-29T11:55:02.288Z,100483.94
2023-04-29T11:57:31.250Z,100490.50
2023-04-29T11:59:59.525Z,100495.81
2023-04-29T12:02:31.833Z,100490.69
2023-04-29T12:05:01.504Z,100494.72
2023-04-29T12:07:31.241Z,100493.56
2023-04-29T12:10:00.164Z,100490.63
2023-04-29T12:12:29.624Z,100487.16
2023-04-29T12:14:57.459Z,100491.09
2023-04-29T12:17:26.170Z,100493.59
2023-04-29T12:19:55.217Z,100485.91
2023-04-29T12:22:22.962Z,100489.50
2023-04-29T12:24:54.733Z,100481.81
2023-04-29T12:27:23.084Z,100494.13
2023-04-29T12:29:53.685Z,100492.41
2023-04-29T12:32:26.360Z,100505.50
2023-04-29T12:34:54.572Z,100488.13
2023-04-29T12:37:23.050Z,100498.78
2023-04-29T12:39:52.950Z,100492.41
2023-04-29T12:42:21.248Z,100489.44
2023-04-29T12:44:49.809Z,100489.56
2023-04-29T12:47:18.469Z,100492.53
2023-04-29T12:49:48.288Z,100498.56
2023-04-29T12:52:16.353Z,100498.03
2023-04-29T12:54:44.797Z,100498.94
2023-04-29T12:57:14.421Z,100496.28
2023-04-29T12:59:42.612Z,100499.94
2023-04-29T13:02:10.569Z,100500.03
2023-04-29T13:04:40.116Z,100498.09
2023-04-29T13:07:08.090Z,100486.59
2023-04-29T13:09:37.879Z,100492.75
2023-04-29T13:12:09.358Z,100495.56
2023-04-29T13:14:39.048Z,100498.78
2023-04-29T13:17:07.364Z,100496.94
2023-04-29T13:22:07.433Z,100493.97
2023-04-29T13:24:36.528Z,100498.06
2023-04-29T13:27:04.311Z,100502.25
2023-04-29T13:29:32.258Z,100493.59
2023-04-29T13:32:02.114Z,100493.97
2023-04-29T13:34:30.477Z,100498.94
2023-04-29T13:36:58.708Z,100488.63
2023-04-29T13:39:27.047Z,100475.81
2023-04-29T13:41:58.899Z,100474.97
2023-04-29T13:44:37.709Z,100472.84
2023-04-29T13:47:15.524Z,100468.34
2023-04-29T13:50:25.632Z,100473.94
2023-04-29T13:55:51.221Z,100488.00
2023-04-29T13:58:39.893Z,100489.78
2023-04-29T14:03:13.012Z,100490.22
2023-04-29T14:05:41.329Z,100492.81
2023-04-29T14:08:09.431Z,100510.94
2023-04-29T14:10:37.884Z,100505.59
2023-04-29T14:13:05.552Z,100510.31
2023-04-29T14:15:33.352Z,100516.13
2023-04-29T14:18:02.283Z,100506.69
2023-04-29T14:20:33.860Z,100504.00
2023-04-29T14:23:02.298Z,100507.56
2023-04-29T14:25:31.577Z,100515.84
2023-04-29T14:28:01.410Z,100513.84
2023-04-29T14:30:29.684Z,100519.81
2023-04-29T14:32:58.435Z,100515.44
2023-04-29T14:35:26.169Z,100533.59
2023-04-29T14:37:55.214Z,100522.75
2023-04-29T14:40:23.035Z,100526.50
2023-04-29T14:42:50.675Z,100531.00
2023-04-29T14:45:19.066Z,100525.22
2023-04-29T14:47:46.903Z,100534.97
2023-04-29T14:50:16.204Z,100529.47
2023-04-29T14:52:43.978Z,100533.88
2023-04-29T14:55:13.506Z,100540.66
2023-04-29T14:57:41.408Z,100541.03
2023-04-29T15:00:12.298Z,100540.00
2023-04-29T15:02:40.018Z,100546.53
2023-04-29T15:05:08.429Z,100543.03
2023-04-29T15:07:36.731Z,100545.53
2023-04-29T15:10:07.394Z,100544.03
2023-04-29T15:12:36.698Z,100550.53
2023-04-29T15:15:05.185Z,100551.56
2023-04-29T15:17:33.026Z,100548.97
2023-04-29T15:20:00.824Z,100549.34
2023-04-29T15:22:28.667Z,100540.19
2023-04-29T15:24:56.474Z,100547.78
2023-04-29T15:27:24.542Z,100541.22
2023-04-29T15:29:54.575Z,100544.31
2023-04-29T15:32:22.560Z,100550.03
2023-04-29T15:34:50.653Z,100552.91
2023-04-29T15:37:18.451Z,100559.06
2023-04-29T15:39:46.181Z,100554.69
2023-04-29T15:42:13.846Z,100549.63
2023-04-29T15:44:41.570Z,100559.06
2023-04-29T15:47:11.589Z,100556.00
2023-04-29T15:49:39.512Z,100562.16
2023-04-29T15:52:07.809Z,100557.19
2023-04-29T15:54:35.808Z,100565.66
2023-04-29T15:57:04.516Z,100565.28
2023-04-29T15:59:32.342Z,100565.00
2023-04-29T16:02:01.415Z,100571.09
2023-04-29T16:04:31.300Z,100573.25
2023-04-29T16:06:59.030Z,100576.13
2023-04-29T16:09:27.878Z,100572.25
2023-04-29T16:11:55.708Z,100579.72
2023-04-29T16:14:23.641Z,100583.84
2023-04-29T16:16:51.977Z,100589.44
2023-04-29T16:19:19.766Z,100591.22
2023-04-29T16:21:49.695Z,100593.28
2023-04-29T16:24:17.784Z,100596.88
2023-04-29T16:26:45.712Z,100592.78
2023-04-29T16:29:14.009Z,100592.88
2023-04-29T16:31:41.696Z,100596.78
2023-04-29T16:34:09.922Z,100599.72
2023-04-29T16:36:38.080Z,100595.34
2023-04-29T16:39:08.826Z,100598.66
2023-04-29T16:41:37.749Z,100598.25
2023-04-29T16:44:05.719Z,100592.31
2023-04-29T16:46:33.622Z,100593.75
2023-04-29T16:49:02.023Z,100594.00
2023-04-29T16:51:30.335Z,100591.31
2023-04-29T16:53:58.167Z,100599.75
2023-04-29T16:56:28.191Z,100605.63
2023-04-29T16:58:55.961Z,100606.28
2023-04-29T17:01:23.711Z,100612.13
2023-04-29T17:03:51.423Z,100617.69
2023-04-29T17:06:19.447Z,100617.41
2023-04-29T17:08:50.052Z,100614.72
2023-04-29T17:11:19.414Z,100625.25
2023-04-29T17:13:48.517Z,100624.75
2023-04-29T17:16:17.362Z,100630.38
2023-04-29T17:18:45.059Z,100633.53
2023-04-29T17:21:12.793Z,100625.22
2023-04-29T17:23:40.686Z,100629.53
2023-04-29T17:26:08.663Z,100630.00
2023-04-29T17:28:36.645Z,100624.75
2023-04-29T17:31:06.372Z,100628.28
2023-04-29T17:33:35.448Z,100632.31
2023-04-29T17:36:04.079Z,100634.13
2023-04-29T17:38:33.072Z,100629.06
2023-04-29T17:41:01.051Z,100637.06
2023-04-29T17:43:32.297Z,100637.16
2023-04-29T17:46:00.410Z,100639.22
2023-04-29T17:48:30.240Z,100656.16
2023-04-29T17:50:58.152Z,100650.34
2023-04-29T17:53:26.638Z,100650.03
2023-04-29T17:55:54.520Z,100656.34
2023-04-29T17:58:22.398Z,100662.34
2023-04-29T18:00:50.476Z,100654.41
2023-04-29T18:03:18.239Z,100666.25
2023-04-29T18:05:47.572Z,100669.94
2023-04-29T18:08:15.314Z,100671.00
2023-04-29T18:10:43.345Z,100668.34
2023-04-29T18:13:11.495Z,100666.91
2023-04-29T18:15:39.232Z,100666.00
2023-04-29T18:18:07.728Z,100663.31
2023-04-29T18:20:36.397Z,100669.88
2023-04-29T18:23:05.462Z,100669.81
2023-04-29T18:25:37.162Z,100666.09
2023-04-29T18:28:22.971Z,100670.16
2023-04-29T18:30:52.444Z,100672.97
2023-04-29T18:33:20.459Z,100676.91
2023-04-29T18:35:48.413Z,100682.03
2023-04-29T18:38:17.750Z,100680.34
2023-04-29T18:40:45.652Z,100678.72
2023-04-29T18:43:17.034Z,100687.56
2023-04-29T18:45:45.179Z,100689.16
2023-04-29T18:48:13.197Z,100693.03
2023-04-29T18:50:41.677Z,100694.81
2023-04-29T18:53:09.965Z,100693.34
2023-04-29T18:55:39.391Z,100698.25
2023-04-29T18:58:07.151Z,100693.47
2023-04-29T19:00:34.783Z,100698.41
2023-04-29T19:03:02.549Z,100700.38
2023-04-29T19:05:31.051Z,100705.91
2023-04-29T19:07:59.089Z,100707.25
2023-04-29T19:10:27.248Z,100710.00
2023-04-29T19:12:56.390Z,100722.75
2023-04-29T19:15:28.481Z,100716.69
2023-04-29T19:17:56.224Z,100723.88
2023-04-29T19:20:24.318Z,100728.44
2023-04-29T19:22:52.139Z,100720.00
2023-04-29T19:25:20.343Z,100730.34
2023-04-29T19:27:48.952Z,100733.16
2023-04-29T19:30:18.798Z,100738.47
2023-04-29T19:32:46.773Z,100727.88
2023-04-29T19:35:14.573Z,100731.53
2023-04-29T19:37:42.469Z,100730.56
2023-04-29T19:40:11.769Z,100741.97
2023-04-29T19:42:40.625Z,100736.13
2023-04-29T19:45:12.499Z,100734.50
2023-04-29T19:47:41.644Z,100740.09
2023-04-29T19:50:10.326Z,100742.69
2023-04-29T19:52:38.482Z,100738.16
2023-04-29T19:55:09.105Z,100745.78
2023-04-29T19:57:38.023Z,100737.81
2023-04-29T20:00:07.795Z,100733.59
2023-04-29T20:02:36.486Z,100743.94
2023-04-29T20:05:06.751Z,100741.09
2023-04-29T20:07:34.761Z,100743.91
2023-04-29T20:10:02.611Z,100741.00
2023-04-29T20:12:30.552Z,100756.25
2023-04-29T20:14:58.401Z,100759.69
2023-04-29T20:17:26.300Z,100762.31
2023-04-29T20:19:54.235Z,100760.75
2023-04-29T20:22:23.385Z,100755.63
2023-04-29T20:24:51.393Z,100759.03
2023-04-29T20:27:19.529Z,100764.06
2023-04-29T20:29:47.574Z,100758.19
2023-04-29T20:32:15.709Z,100757.00
2023-04-29T20:34:43.692Z,100756.38
2023-04-29T20:37:11.440Z,100755.34
2023-04-29T20:39:40.779Z,100756.66
2023-04-29T20:42:08.604Z,100763.53
2023-04-29T20:44:36.892Z,100762.03
2023-04-29T20:47:05.464Z,100761.94
2023-04-29T20:49:34.896Z,100765.56
2023-04-29T20:52:02.633Z,100765.31
2023-04-29T20:54:30.820Z,100762.69
2023-04-29T20:57:01.548Z,100766.16
2023-04-29T20:59:29.602Z,100764.41
2023-04-29T21:01:57.334Z,100766.22
2023-04-29T21:04:25.699Z,100770.38
2023-04-29T21:06:53.846Z,100776.06
2023-04-29T21:09:21.832Z,100778.88
2023-04-29T21:11:49.606Z,100767.06
2023-04-29T21:14:20.059Z,100769.94
2023-04-29T21:16:47.952Z,100773.00
2023-04-29T21:19:15.748Z,100773.25
2023-04-29T21:21:43.790Z,100778.81
2023-04-29T21:24:11.781Z,100778.19
2023-04-29T21:26:39.549Z,100778.81
2023-04-29T21:29:08.634Z,100771.94
2023-04-29T21:31:37.885Z,100770.44
2023-04-29T21:34:06.116Z,100774.44
2023-04-29T21:36:33.990Z,100775.22
2023-04-29T21:39:01.932Z,100772.66
2023-04-29T21:41:32.890Z,100771.88
2023-04-29T21:44:02.873Z,100774.34
2023-04-29T21:46:33.153Z,100785.91
2023-04-29T21:49:03.352Z,100784.78
2023-04-29T21:51:31.974Z,100781.84
2023-04-29T21:53:59.661Z,100783.94
2023-04-29T21:56:27.638Z,100788.56
2023-04-29T21:58:55.365Z,100787.91
2023-04-29T22:01:40.419Z,100787.66
2023-04-29T22:04:09.808Z,100789.47
2023-04-29T22:06:38.208Z,100792.25
2023-04-29T22:09:07.182Z,100801.66
2023-04-29T22:11:35.451Z,100791.13
2023-04-29T22:14:03.161Z,100790.47
2023-04-29T22:16:30.821Z,100789.78
2023-04-29T22:18:58.789Z,100796.84
2023-04-29T22:21:28.761Z,100792.59
2023-04-29T22:23:56.730Z,100797.78
2023-04-29T22:26:25.468Z,100790.78
2023-04-29T22:28:53.325Z,100798.69
2023-04-29T22:31:21.539Z,100796.91
2023-04-29T22:33:49.624Z,100804.66
2023-04-29T22:36:17.581Z,100807.47
2023-04-29T22:38:46.776Z,100809.22
2023-04-29T22:41:14.669Z,100805.22
2023-04-29T22:43:42.392Z,100811.31
2023-04-29T22:46:10.093Z,100799.72
2023-04-29T22:48:37.895Z,100794.66
2023-04-29T22:51:05.985Z,100796.31
2023-04-29T22:53:33.992Z,100801.97
2023-04-29T22:56:03.324Z,100797.22
2023-04-29T22:58:31.529Z,100798.69
2023-04-29T23:00:59.447Z,100806.06
2023-04-29T23:03:28.086Z,100799.69
2023-04-29T23:05:59.366Z,100804.41
2023-04-29T23:08:27.362Z,100800.13
2023-04-29T23:10:55.780Z,100802.97
2023-04-29T23:13:25.016Z,100805.06
2023-04-29T23:15:55.954Z,100806.97
2023-04-29T23:18:23.689Z,100810.47
2023-04-29T23:20:51.646Z,100812.34
2023-04-29T23:23:19.471Z,100820.66
2023-04-29T23:25:47.564Z,100816.72
2023-04-29T23:28:16.280Z,100822.59
2023-04-29T23:30:47.411Z,100818.56
2023-04-29T23:33:15.434Z,100819.50
2023-04-29T23:35:48.443Z,100821.94
2023-04-29T23:38:16.203Z,100812.31
2023-04-29T23:40:44.289Z,100812.53
2023-04-29T23:43:12.048Z,100816.09
2023-04-29T23:45:39.747Z,100822.16
2023-04-29T23:48:09.699Z,100825.78
2023-04-29T23:50:37.576Z,100827.50
2023-04-29T23:53:05.731Z,100820.41
2023-04-29T23:55:34.467Z,100821.03
2023-04-29T23:58:02.122Z,100822.00
